BAW137 EGPH-EGCC
Flight info
| Callsign | BAW137 |
|---|---|
| Flight time | 0h 37m |
| Altitude | 25000 |
| Route | GOSAM P600 FENIK L612 LAKEY |
| Aircraft | A20N/M-SDE2E3FGHIRWXY/LB1 |
Departure
| Time | 2026-04-26 09:15 |
|---|---|
| Airport | Edinburgh Airport (EGPH) |
Arrival
| Time | 2026-04-26 09:52 |
|---|---|
| Airport | Manchester Airport (EGCC) |
| Time | Latitude | Longitude | Altitude | Speed | Heading |
|---|---|---|---|---|---|
| 2026-04-26 08:46 | 55.94657 | -3.36614 | 114 ft | 0 kts | 89° |
| 2026-04-26 09:04 | 55.94657 | -3.36623 | 115 ft | 4 kts | 89° |
| 2026-04-26 09:04 | 55.94656 | -3.36671 | 113 ft | 4 kts | 89° |
| 2026-04-26 09:04 | 55.94655 | -3.36711 | 113 ft | 4 kts | 59° |
| 2026-04-26 09:05 | 55.94636 | -3.36733 | 112 ft | 4 kts | 4° |
| 2026-04-26 09:05 | 55.94621 | -3.36734 | 115 ft | 0 kts | 359° |
| 2026-04-26 09:07 | 55.94623 | -3.36734 | 114 ft | 1 kts | 359° |
| 2026-04-26 09:07 | 55.94646 | -3.36735 | 114 ft | 5 kts | 359° |
| 2026-04-26 09:07 | 55.94694 | -3.36737 | 116 ft | 9 kts | 358° |
| 2026-04-26 09:07 | 55.94763 | -3.36757 | 113 ft | 12 kts | 342° |
| 2026-04-26 09:08 | 55.94843 | -3.36780 | 116 ft | 9 kts | 356° |
| 2026-04-26 09:08 | 55.94911 | -3.36817 | 115 ft | 12 kts | 341° |
| 2026-04-26 09:08 | 55.94978 | -3.36750 | 112 ft | 13 kts | 57° |
| 2026-04-26 09:08 | 55.95029 | -3.36601 | 113 ft | 15 kts | 59° |
| 2026-04-26 09:09 | 55.95087 | -3.36423 | 114 ft | 18 kts | 59° |
| 2026-04-26 09:09 | 55.95155 | -3.36223 | 114 ft | 20 kts | 59° |
| 2026-04-26 09:09 | 55.95231 | -3.36002 | 113 ft | 22 kts | 58° |
| 2026-04-26 09:09 | 55.95309 | -3.35764 | 115 ft | 23 kts | 58° |
| 2026-04-26 09:10 | 55.95389 | -3.35530 | 114 ft | 12 kts | 59° |
| 2026-04-26 09:10 | 55.95447 | -3.35412 | 114 ft | 14 kts | 18° |
| 2026-04-26 09:10 | 55.95503 | -3.35447 | 114 ft | 0 kts | 319° |
| 2026-04-26 09:12 | 55.95513 | -3.35458 | 114 ft | 4 kts | 327° |
| 2026-04-26 09:13 | 55.95553 | -3.35510 | 111 ft | 10 kts | 315° |
| 2026-04-26 09:13 | 55.95548 | -3.35635 | 112 ft | 12 kts | 240° |
| 2026-04-26 09:13 | 55.95536 | -3.35670 | 111 ft | 0 kts | 239° |
| 2026-04-26 09:14 | 55.95451 | -3.35921 | 109 ft | 67 kts | 239° |
| 2026-04-26 09:14 | 55.95063 | -3.37061 | 113 ft | 144 kts | 239° |
| 2026-04-26 09:14 | 55.94494 | -3.38772 | 592 ft | 166 kts | 240° |
| 2026-04-26 09:15 | 55.93906 | -3.40632 | 1405 ft | 178 kts | 240° |
| 2026-04-26 09:15 | 55.93292 | -3.42548 | 2348 ft | 183 kts | 237° |
| 2026-04-26 09:15 | 55.92568 | -3.44552 | 2970 ft | 201 kts | 236° |
| 2026-04-26 09:15 | 55.91769 | -3.46730 | 3639 ft | 219 kts | 237° |
| 2026-04-26 09:16 | 55.90939 | -3.49159 | 4270 ft | 240 kts | 243° |
| 2026-04-26 09:16 | 55.90326 | -3.52036 | 5002 ft | 254 kts | 255° |
| 2026-04-26 09:16 | 55.90009 | -3.55161 | 6012 ft | 257 kts | 260° |
| 2026-04-26 09:16 | 55.89712 | -3.58317 | 7038 ft | 260 kts | 259° |
| 2026-04-26 09:17 | 55.89400 | -3.61500 | 8010 ft | 262 kts | 258° |
| 2026-04-26 09:17 | 55.89081 | -3.64684 | 8975 ft | 266 kts | 258° |
| 2026-04-26 09:17 | 55.88752 | -3.67947 | 9965 ft | 269 kts | 258° |
| 2026-04-26 09:17 | 55.88417 | -3.71264 | 10760 ft | 279 kts | 258° |
| 2026-04-26 09:18 | 55.88056 | -3.74812 | 11122 ft | 302 kts | 258° |
| 2026-04-26 09:18 | 55.87667 | -3.78627 | 11519 ft | 322 kts | 258° |
| 2026-04-26 09:18 | 55.87270 | -3.82580 | 12316 ft | 327 kts | 258° |
| 2026-04-26 09:18 | 55.86874 | -3.86588 | 13149 ft | 331 kts | 258° |
| 2026-04-26 09:19 | 55.86472 | -3.90652 | 13998 ft | 335 kts | 259° |
| 2026-04-26 09:19 | 55.86063 | -3.94763 | 14780 ft | 338 kts | 258° |
| 2026-04-26 09:19 | 55.85648 | -3.98906 | 15581 ft | 341 kts | 258° |
| 2026-04-26 09:19 | 55.85229 | -4.03069 | 16362 ft | 343 kts | 258° |
| 2026-04-26 09:20 | 55.84805 | -4.07263 | 17129 ft | 346 kts | 258° |
| 2026-04-26 09:20 | 55.84263 | -4.11438 | 17883 ft | 348 kts | 248° |
| 2026-04-26 09:20 | 55.83039 | -4.15140 | 18610 ft | 351 kts | 230° |
| 2026-04-26 09:20 | 55.81196 | -4.18011 | 19222 ft | 356 kts | 217° |
| 2026-04-26 09:21 | 55.79092 | -4.20403 | 19827 ft | 361 kts | 213° |
| 2026-04-26 09:21 | 55.76971 | -4.22713 | 20423 ft | 364 kts | 214° |
| 2026-04-26 09:21 | 55.74753 | -4.24932 | 21025 ft | 370 kts | 205° |
| 2026-04-26 09:21 | 55.72209 | -4.26175 | 21614 ft | 380 kts | 190° |
| 2026-04-26 09:22 | 55.69569 | -4.26142 | 22147 ft | 392 kts | 174° |
| 2026-04-26 09:22 | 55.66919 | -4.24732 | 22693 ft | 404 kts | 158° |
| 2026-04-26 09:22 | 55.64422 | -4.22355 | 23253 ft | 410 kts | 154° |
| 2026-04-26 09:22 | 55.61920 | -4.19852 | 23811 ft | 415 kts | 154° |
| 2026-04-26 09:23 | 55.59399 | -4.17330 | 24298 ft | 418 kts | 154° |
| 2026-04-26 09:23 | 55.56856 | -4.14809 | 24793 ft | 421 kts | 155° |
| 2026-04-26 09:23 | 55.54286 | -4.12283 | 25165 ft | 427 kts | 155° |
| 2026-04-26 09:23 | 55.51647 | -4.09709 | 25282 ft | 440 kts | 155° |
| 2026-04-26 09:24 | 55.48920 | -4.07059 | 25288 ft | 454 kts | 155° |
| 2026-04-26 09:24 | 55.46107 | -4.04331 | 25285 ft | 468 kts | 155° |
| 2026-04-26 09:24 | 55.43217 | -4.01528 | 25285 ft | 480 kts | 154° |
| 2026-04-26 09:24 | 55.40263 | -3.98665 | 25288 ft | 491 kts | 154° |
| 2026-04-26 09:25 | 55.37246 | -3.95744 | 25290 ft | 498 kts | 154° |
| 2026-04-26 09:25 | 55.34191 | -3.92792 | 25290 ft | 503 kts | 154° |
| 2026-04-26 09:25 | 55.31109 | -3.89819 | 25289 ft | 507 kts | 154° |
| 2026-04-26 09:25 | 55.28014 | -3.86841 | 25289 ft | 509 kts | 154° |
| 2026-04-26 09:26 | 55.24900 | -3.83852 | 25289 ft | 510 kts | 154° |
| 2026-04-26 09:26 | 55.21781 | -3.80862 | 25289 ft | 512 kts | 154° |
| 2026-04-26 09:26 | 55.18651 | -3.77869 | 25287 ft | 511 kts | 154° |
| 2026-04-26 09:26 | 55.15601 | -3.74951 | 25290 ft | 487 kts | 154° |
| 2026-04-26 09:27 | 55.12704 | -3.72181 | 25296 ft | 464 kts | 155° |
| 2026-04-26 09:27 | 55.09942 | -3.69547 | 25297 ft | 442 kts | 155° |
| 2026-04-26 09:27 | 55.07297 | -3.67032 | 25295 ft | 423 kts | 155° |
| 2026-04-26 09:27 | 55.04740 | -3.64611 | 25297 ft | 417 kts | 155° |
| 2026-04-26 09:28 | 55.02184 | -3.62200 | 25296 ft | 417 kts | 155° |
| 2026-04-26 09:28 | 54.99605 | -3.59773 | 25297 ft | 428 kts | 155° |
| 2026-04-26 09:28 | 54.96937 | -3.57266 | 25296 ft | 444 kts | 155° |
| 2026-04-26 09:28 | 54.94178 | -3.54673 | 25290 ft | 458 kts | 155° |
| 2026-04-26 09:29 | 54.91337 | -3.52001 | 25296 ft | 471 kts | 155° |
| 2026-04-26 09:29 | 54.89415 | -3.50192 | 25295 ft | 477 kts | 155° |
| 2026-04-26 09:29 | 54.85543 | -3.46550 | 25295 ft | 477 kts | 155° |
| 2026-04-26 09:29 | 54.82624 | -3.43809 | 25295 ft | 477 kts | 155° |
| 2026-04-26 09:30 | 54.79741 | -3.41105 | 25294 ft | 462 kts | 155° |
| 2026-04-26 09:30 | 54.76973 | -3.38509 | 25294 ft | 441 kts | 155° |
| 2026-04-26 09:30 | 54.75179 | -3.36830 | 25293 ft | 428 kts | 155° |
| 2026-04-26 09:30 | 54.72602 | -3.34433 | 25185 ft | 417 kts | 156° |
| 2026-04-26 09:31 | 54.69992 | -3.32374 | 24935 ft | 420 kts | 160° |
| 2026-04-26 09:31 | 54.67303 | -3.30376 | 24691 ft | 419 kts | 160° |
| 2026-04-26 09:31 | 54.64636 | -3.28383 | 24465 ft | 416 kts | 160° |
| 2026-04-26 09:31 | 54.61984 | -3.26397 | 24235 ft | 414 kts | 160° |
| 2026-04-26 09:32 | 54.59344 | -3.24421 | 23998 ft | 414 kts | 160° |
| 2026-04-26 09:32 | 54.56711 | -3.22451 | 23748 ft | 412 kts | 160° |
| 2026-04-26 09:32 | 54.54077 | -3.20482 | 23465 ft | 412 kts | 160° |
| 2026-04-26 09:32 | 54.51455 | -3.18526 | 23186 ft | 410 kts | 160° |
| 2026-04-26 09:33 | 54.48843 | -3.16580 | 22924 ft | 408 kts | 160° |
| 2026-04-26 09:33 | 54.46247 | -3.14648 | 22653 ft | 405 kts | 160° |
| 2026-04-26 09:33 | 54.43660 | -3.12727 | 22377 ft | 404 kts | 159° |
| 2026-04-26 09:33 | 54.41081 | -3.10814 | 22109 ft | 402 kts | 160° |
| 2026-04-26 09:34 | 54.38521 | -3.08919 | 21848 ft | 400 kts | 160° |
| 2026-04-26 09:34 | 54.35965 | -3.07039 | 21589 ft | 398 kts | 160° |
| 2026-04-26 09:34 | 54.33429 | -3.05167 | 21302 ft | 397 kts | 159° |
| 2026-04-26 09:34 | 54.30890 | -3.03291 | 20772 ft | 397 kts | 159° |
| 2026-04-26 09:35 | 54.28357 | -3.01422 | 20232 ft | 394 kts | 159° |
| 2026-04-26 09:35 | 54.25882 | -2.99599 | 19700 ft | 391 kts | 159° |
| 2026-04-26 09:35 | 54.23408 | -2.97559 | 19158 ft | 389 kts | 153° |
| 2026-04-26 09:35 | 54.21136 | -2.95079 | 18599 ft | 387 kts | 149° |
| 2026-04-26 09:36 | 54.18932 | -2.92574 | 18047 ft | 382 kts | 149° |
| 2026-04-26 09:36 | 54.16701 | -2.90052 | 17514 ft | 377 kts | 149° |
| 2026-04-26 09:36 | 54.14523 | -2.87604 | 16991 ft | 372 kts | 149° |
| 2026-04-26 09:36 | 54.12400 | -2.85224 | 16473 ft | 368 kts | 149° |
| 2026-04-26 09:37 | 54.10270 | -2.82841 | 15954 ft | 364 kts | 149° |
| 2026-04-26 09:37 | 54.08163 | -2.80486 | 15503 ft | 359 kts | 149° |
| 2026-04-26 09:37 | 54.06086 | -2.78167 | 15335 ft | 358 kts | 149° |
| 2026-04-26 09:37 | 54.03995 | -2.75839 | 15302 ft | 361 kts | 149° |
| 2026-04-26 09:38 | 54.01898 | -2.73504 | 15306 ft | 360 kts | 149° |
| 2026-04-26 09:38 | 53.99798 | -2.71168 | 15309 ft | 360 kts | 149° |
| 2026-04-26 09:38 | 53.97702 | -2.68840 | 15308 ft | 360 kts | 149° |
| 2026-04-26 09:38 | 53.95610 | -2.66518 | 15194 ft | 358 kts | 149° |
| 2026-04-26 09:39 | 53.93528 | -2.64210 | 14870 ft | 356 kts | 149° |
| 2026-04-26 09:39 | 53.91465 | -2.61926 | 14441 ft | 352 kts | 149° |
| 2026-04-26 09:39 | 53.89452 | -2.59697 | 14301 ft | 339 kts | 149° |
| 2026-04-26 09:39 | 53.87515 | -2.57555 | 14179 ft | 326 kts | 149° |
| 2026-04-26 09:40 | 53.85657 | -2.55501 | 14056 ft | 313 kts | 148° |
| 2026-04-26 09:40 | 53.83954 | -2.53288 | 13803 ft | 307 kts | 141° |
| 2026-04-26 09:40 | 53.82377 | -2.50882 | 13392 ft | 304 kts | 140° |
| 2026-04-26 09:40 | 53.80816 | -2.48485 | 12795 ft | 301 kts | 140° |
| 2026-04-26 09:41 | 53.79270 | -2.46121 | 12202 ft | 298 kts | 140° |
| 2026-04-26 09:41 | 53.77734 | -2.43776 | 11627 ft | 296 kts | 140° |
| 2026-04-26 09:41 | 53.76218 | -2.41460 | 11071 ft | 293 kts | 140° |
| 2026-04-26 09:41 | 53.74708 | -2.39175 | 10571 ft | 288 kts | 140° |
| 2026-04-26 09:42 | 53.73265 | -2.36976 | 10406 ft | 270 kts | 140° |
| 2026-04-26 09:42 | 53.71924 | -2.34912 | 10273 ft | 253 kts | 139° |
| 2026-04-26 09:42 | 53.70642 | -2.32971 | 9956 ft | 244 kts | 140° |
| 2026-04-26 09:42 | 53.69384 | -2.31070 | 9492 ft | 242 kts | 140° |
| 2026-04-26 09:43 | 53.68150 | -2.29203 | 9025 ft | 240 kts | 140° |
| 2026-04-26 09:43 | 53.66903 | -2.27300 | 8601 ft | 238 kts | 140° |
| 2026-04-26 09:43 | 53.65692 | -2.25466 | 8171 ft | 236 kts | 140° |
| 2026-04-26 09:43 | 53.64454 | -2.23619 | 7727 ft | 235 kts | 140° |
| 2026-04-26 09:44 | 53.63247 | -2.21841 | 7306 ft | 233 kts | 140° |
| 2026-04-26 09:44 | 53.62028 | -2.20062 | 6900 ft | 230 kts | 140° |
| 2026-04-26 09:44 | 53.60828 | -2.18306 | 6492 ft | 228 kts | 140° |
| 2026-04-26 09:44 | 53.59637 | -2.16549 | 6035 ft | 228 kts | 140° |
| 2026-04-26 09:45 | 53.58445 | -2.14789 | 5589 ft | 228 kts | 140° |
| 2026-04-26 09:45 | 53.57269 | -2.13025 | 5166 ft | 226 kts | 140° |
| 2026-04-26 09:45 | 53.56104 | -2.11254 | 4773 ft | 225 kts | 140° |
| 2026-04-26 09:45 | 53.54952 | -2.09498 | 4387 ft | 223 kts | 140° |
| 2026-04-26 09:46 | 53.53811 | -2.07751 | 4031 ft | 220 kts | 140° |
| 2026-04-26 09:46 | 53.52724 | -2.06070 | 3893 ft | 205 kts | 140° |
| 2026-04-26 09:46 | 53.51708 | -2.04482 | 3705 ft | 195 kts | 140° |
| 2026-04-26 09:46 | 53.50659 | -2.03056 | 3282 ft | 193 kts | 160° |
| 2026-04-26 09:47 | 53.49383 | -2.02666 | 3062 ft | 187 kts | 179° |
| 2026-04-26 09:47 | 53.48139 | -2.02604 | 3017 ft | 169 kts | 180° |
| 2026-04-26 09:47 | 53.47059 | -2.02841 | 2981 ft | 147 kts | 215° |
| 2026-04-26 09:47 | 53.46457 | -2.04126 | 3012 ft | 144 kts | 238° |
| 2026-04-26 09:48 | 53.45945 | -2.05537 | 3007 ft | 141 kts | 233° |
| 2026-04-26 09:48 | 53.45365 | -2.06875 | 2996 ft | 141 kts | 230° |
| 2026-04-26 09:48 | 53.44752 | -2.08158 | 2958 ft | 142 kts | 229° |
| 2026-04-26 09:48 | 53.44131 | -2.09445 | 2799 ft | 141 kts | 228° |
| 2026-04-26 09:49 | 53.43515 | -2.10719 | 2615 ft | 140 kts | 228° |
| 2026-04-26 09:49 | 53.42904 | -2.11981 | 2437 ft | 140 kts | 227° |
| 2026-04-26 09:49 | 53.42290 | -2.13249 | 2242 ft | 140 kts | 227° |
| 2026-04-26 09:49 | 53.41677 | -2.14515 | 2063 ft | 139 kts | 227° |
| 2026-04-26 09:50 | 53.41072 | -2.15763 | 1874 ft | 136 kts | 227° |
| 2026-04-26 09:50 | 53.40471 | -2.17002 | 1676 ft | 138 kts | 227° |
| 2026-04-26 09:50 | 53.39867 | -2.18250 | 1487 ft | 137 kts | 227° |
| 2026-04-26 09:50 | 53.39263 | -2.19494 | 1301 ft | 140 kts | 227° |
| 2026-04-26 09:51 | 53.38659 | -2.20743 | 1099 ft | 136 kts | 227° |
| 2026-04-26 09:51 | 53.38064 | -2.21966 | 911 ft | 139 kts | 228° |
| 2026-04-26 09:51 | 53.37452 | -2.23226 | 717 ft | 140 kts | 229° |
| 2026-04-26 09:51 | 53.36838 | -2.24495 | 528 ft | 140 kts | 230° |
| 2026-04-26 09:52 | 53.36222 | -2.25764 | 337 ft | 140 kts | 231° |
| 2026-04-26 09:52 | 53.35267 | -2.27774 | 237 ft | 42 kts | 253° |
| 2026-04-26 09:52 | 53.35235 | -2.28150 | 230 ft | 4 kts | 294° |
| 2026-04-26 09:53 | 53.35237 | -2.28157 | 230 ft | 0 kts | 294° |
| 2026-04-26 09:53 | 53.35239 | -2.28165 | 232 ft | 1 kts | 296° |
| 2026-04-26 09:53 | 53.35246 | -2.28186 | 232 ft | 3 kts | 299° |
| 2026-04-26 09:53 | 53.35260 | -2.28201 | 231 ft | 2 kts | 2° |
| 2026-04-26 09:54 | 53.35311 | -2.28160 | 236 ft | 20 kts | 37° |
| 2026-04-26 09:54 | 53.35416 | -2.27992 | 236 ft | 21 kts | 44° |
| 2026-04-26 09:54 | 53.35547 | -2.27912 | 237 ft | 22 kts | 8° |
| 2026-04-26 09:54 | 53.35654 | -2.27891 | 242 ft | 0 kts | 6° |
| 2026-04-26 09:55 | 53.35655 | -2.27891 | 242 ft | 2 kts | 6° |
| 2026-04-26 09:55 | 53.35721 | -2.27878 | 245 ft | 12 kts | 6° |
| 2026-04-26 09:55 | 53.35807 | -2.27862 | 250 ft | 12 kts | 6° |
| 2026-04-26 09:55 | 53.35888 | -2.27850 | 254 ft | 11 kts | 4° |
| 2026-04-26 09:56 | 53.35969 | -2.27878 | 255 ft | 13 kts | 331° |
| 2026-04-26 09:56 | 53.36048 | -2.27985 | 255 ft | 16 kts | 317° |
| 2026-04-26 09:56 | 53.36139 | -2.28120 | 255 ft | 18 kts | 308° |
| 2026-04-26 09:56 | 53.36232 | -2.28288 | 255 ft | 21 kts | 316° |
| 2026-04-26 09:57 | 53.36347 | -2.28456 | 255 ft | 23 kts | 334° |
| 2026-04-26 09:57 | 53.36484 | -2.28598 | 255 ft | 24 kts | 314° |
| 2026-04-26 09:57 | 53.36596 | -2.28825 | 255 ft | 26 kts | 307° |
| 2026-04-26 09:57 | 53.36693 | -2.28996 | 255 ft | 14 kts | 317° |
| 2026-04-26 09:58 | 53.36783 | -2.29064 | 255 ft | 16 kts | 12° |
| 2026-04-26 09:58 | 53.36882 | -2.28967 | 255 ft | 13 kts | 43° |
| 2026-04-26 09:58 | 53.36922 | -2.28895 | 255 ft | 0 kts | 59° |
| 2026-04-26 09:58 | 53.36925 | -2.28875 | 255 ft | 4 kts | 78° |
| 2026-04-26 09:59 | 53.36925 | -2.28855 | 255 ft | 2 kts | 92° |
| 2026-04-26 09:59 | 53.36914 | -2.28825 | 255 ft | 4 kts | 138° |
| 2026-04-26 09:59 | 53.36902 | -2.28807 | 255 ft | 1 kts | 135° |
| 2026-04-26 09:59 | 53.36895 | -2.28795 | 255 ft | 2 kts | 134° |
| 2026-04-26 10:00 | 53.36891 | -2.28788 | 255 ft | 0 kts | 134° |